Time;durP1;ratioP1;P1;durP2;ratioP2;P2;SDS_P1;SDS_P2;PMS_P1;PMS_P2;Temp;Humidity;BMP_temperature;BMP_pressure;BME280_temperature;BME280_humidity;BME280_pressure;Samples;Min_cycle;Max_cycle;Signal;HPM_P1;HPM_P2
2023/06/07 00:00:05;;;;;;;1999.90;999.90;;;12.00;99.90;;;;;;4994432;28;20076;-77
2023/06/07 00:02:31;;;;;;;1942.50;810.95;;;12.00;99.90;;;;;;5024284;28;20064;-77
2023/06/07 00:04:57;;;;;;;1999.90;829.47;;;12.00;99.90;;;;;;5013391;28;20124;-78
2023/06/07 00:07:22;;;;;;;1891.35;594.80;;;12.00;99.90;;;;;;5028746;28;20535;-77
2023/06/07 00:09:48;;;;;;;1999.90;999.90;;;12.10;99.90;;;;;;5026285;28;20068;-77
2023/06/07 00:12:14;;;;;;;1923.10;211.55;;;11.90;99.90;;;;;;5009144;28;20049;-78
2023/06/07 00:14:40;;;;;;;1999.90;999.90;;;11.90;99.90;;;;;;4995353;28;20077;-78
2023/06/07 00:17:05;;;;;;;1999.90;639.63;;;11.90;99.90;;;;;;5027934;28;20374;-77
2023/06/07 00:19:31;;;;;;;1999.90;491.90;;;13.00;99.90;;;;;;4992960;28;20041;-77
2023/06/07 00:21:57;;;;;;;1999.90;999.90;;;11.90;99.90;;;;;;5027053;28;20038;-84
2023/06/07 00:24:23;;;;;;;1999.90;999.90;;;11.80;99.90;;;;;;5026387;28;20076;-77
2023/06/07 00:26:49;;;;;;;1999.90;999.90;;;11.80;99.90;;;;;;5025501;28;20045;-77
2023/06/07 00:29:15;;;;;;;1999.90;999.90;;;11.80;99.90;;;;;;5013022;28;20092;-77
2023/06/07 00:31:40;;;;;;;1999.90;499.23;;;11.70;99.90;;;;;;5026875;28;20042;-79
2023/06/07 00:34:06;;;;;;;1992.47;641.03;;;11.80;99.90;;;;;;5026649;28;20056;-77
2023/06/07 00:36:35;;;;;;;1961.90;609.25;;;11.70;99.90;;;;;;5008429;28;20041;-77
2023/06/07 00:39:02;;;;;;;1999.90;358.17;;;11.70;99.90;;;;;;5027865;28;20068;-77
2023/06/07 00:41:28;;;;;;;1999.90;303.55;;;11.70;99.90;;;;;;5007548;28;20049;-82
2023/06/07 00:43:54;;;;;;;1999.90;858.22;;;11.70;99.90;;;;;;5026922;28;20036;-77
2023/06/07 00:46:22;;;;;;;1999.90;999.90;;;11.70;99.90;;;;;;5009492;28;20234;-77
2023/06/07 00:48:49;;;;;;;1973.43;801.70;;;11.70;99.90;;;;;;5029191;28;20044;-77
2023/06/07 00:51:15;;;;;;;1999.90;645.10;;;11.60;99.90;;;;;;5008458;28;20052;-77
2023/06/07 00:53:42;;;;;;;1997.78;414.73;;;11.60;99.90;;;;;;5023479;28;20044;-82
2023/06/07 00:56:09;;;;;;;1999.90;487.03;;;11.60;99.90;;;;;;5041672;28;20462;-77
2023/06/07 00:58:38;;;;;;;1999.90;228.90;;;11.50;99.90;;;;;;5008514;28;20060;-77
2023/06/07 01:01:04;;;;;;;1999.90;999.90;;;11.50;99.90;;;;;;5009756;28;20474;-77
2023/06/07 01:03:30;;;;;;;1999.90;999.90;;;11.50;99.90;;;;;;5025984;28;20041;-78
2023/06/07 01:05:58;;;;;;;1999.90;999.90;;;11.50;99.90;;;;;;5004857;28;20037;-77
2023/06/07 01:08:25;;;;;;;1999.90;253.40;;;11.60;99.90;;;;;;5009239;28;20038;-77
2023/06/07 01:10:52;;;;;;;1999.90;442.35;;;11.50;99.90;;;;;;5027181;28;20041;-77
2023/06/07 01:13:18;;;;;;;1845.22;777.83;;;11.50;99.90;;;;;;5025863;28;20047;-79
2023/06/07 01:15:44;;;;;;;1999.90;405.10;;;11.50;99.90;;;;;;5007262;28;20481;-77
2023/06/07 01:18:11;;;;;;;1904.97;792.25;;;11.50;99.90;;;;;;5027070;28;20040;-77
2023/06/07 01:20:40;;;;;;;1999.90;440.35;;;11.50;99.90;;;;;;5027188;28;20041;-77
2023/06/07 01:23:09;;;;;;;1999.90;216.73;;;11.40;99.90;;;;;;5007065;28;20045;-78
2023/06/07 01:25:34;;;;;;;1863.20;593.20;;;11.40;99.90;;;;;;5023006;28;20041;-77
2023/06/07 01:28:01;;;;;;;1976.00;225.88;;;11.40;99.90;;;;;;5007918;28;20044;-77
2023/06/07 01:30:31;;;;;;;1999.90;816.03;;;11.40;99.90;;;;;;5008002;28;20045;-77
2023/06/07 01:32:58;;;;;;;1999.90;624.15;;;11.40;99.90;;;;;;5029105;28;20045;-77
2023/06/07 01:35:25;;;;;;;1999.90;999.90;;;11.30;99.90;;;;;;5030137;28;20109;-77
2023/06/07 01:37:52;;;;;;;1999.90;240.10;;;11.30;99.90;;;;;;5031005;28;20068;-77
2023/06/07 01:40:20;;;;;;;1999.90;622.20;;;11.30;99.90;;;;;;5012766;28;20060;-77
2023/06/07 01:42:47;;;;;;;1971.90;620.20;;;11.30;99.90;;;;;;5033159;28;20037;-77
2023/06/07 01:45:13;;;;;;;1999.90;458.08;;;11.20;99.90;;;;;;4981265;28;20065;-78
2023/06/07 01:47:39;;;;;;;1999.90;656.38;;;11.20;99.90;;;;;;5028154;28;20456;-78
2023/06/07 01:50:06;;;;;;;1999.90;844.78;;;11.40;99.90;;;;;;5030679;28;20045;-79
2023/06/07 01:52:32;;;;;;;1447.33;419.80;;;11.20;99.90;;;;;;5029870;28;20052;-79
2023/06/07 01:54:58;;;;;;;1999.90;604.70;;;11.20;99.90;;;;;;5030664;28;20351;-78
2023/06/07 01:57:26;;;;;;;1727.18;776.15;;;11.20;99.90;;;;;;5009488;28;20045;-79
2023/06/07 02:00:13;;;;;;;1999.90;999.90;;;11.10;99.90;;;;;;5030281;28;20048;-79
2023/06/07 02:02:59;;;;;;;1999.90;999.90;;;11.10;99.90;;;;;;5046044;28;20505;-78
2023/06/07 02:05:38;;;;;;;1833.55;786.10;;;11.10;99.90;;;;;;5027936;28;20034;-78
2023/06/07 02:08:17;;;;;;;1999.90;999.90;;;11.10;99.90;;;;;;5012987;28;20055;-79
2023/06/07 02:10:44;;;;;;;1999.90;999.90;;;11.20;99.90;;;;;;5028610;28;20049;-78
2023/06/07 02:13:11;;;;;;;1999.90;806.10;;;11.10;99.90;;;;;;5028914;28;20056;-84
2023/06/07 02:15:37;;;;;;;1999.90;999.90;;;11.10;99.90;;;;;;5027205;28;20406;-78
2023/06/07 02:18:02;;;;;;;1999.90;999.90;;;11.00;99.90;;;;;;5027942;28;20043;-79
2023/06/07 02:20:30;;;;;;;1999.90;999.90;;;11.00;99.90;;;;;;5032710;28;20040;-78
2023/06/07 02:22:56;;;;;;;1999.90;999.90;;;11.00;99.90;;;;;;5028501;28;20088;-82
2023/06/07 02:25:23;;;;;;;1999.90;999.90;;;11.10;99.90;;;;;;5005140;28;20037;-79
2023/06/07 02:27:49;;;;;;;1828.80;149.38;;;10.90;99.90;;;;;;5025448;28;20135;-78
2023/06/07 02:30:15;;;;;;;1999.90;999.90;;;10.90;99.90;;;;;;5028300;28;20072;-78
2023/06/07 02:32:45;;;;;;;1999.90;216.27;;;10.90;99.90;;;;;;5026855;28;20476;-78
2023/06/07 02:35:11;;;;;;;1947.57;793.90;;;10.80;99.90;;;;;;5021719;28;20429;-78
2023/06/07 02:37:37;;;;;;;1956.65;573.63;;;10.80;99.90;;;;;;4994093;28;20049;-78
2023/06/07 02:40:10;;;;;;;1873.10;581.00;;;10.80;99.90;;;;;;5026563;28;20378;-78
2023/06/07 02:42:49;;;;;;;1674.07;569.10;;;10.90;99.90;;;;;;4975410;28;20458;-78
2023/06/07 02:45:15;;;;;;;1999.90;398.35;;;11.00;99.90;;;;;;5006188;28;20053;-78
2023/06/07 02:47:41;;;;;;;1953.88;798.03;;;11.00;99.90;;;;;;5008457;28;20045;-78
2023/06/07 02:50:08;;;;;;;1777.88;366.05;;;11.00;99.90;;;;;;5026244;28;20042;-80
2023/06/07 02:52:33;;;;;;;1999.90;999.90;;;11.00;99.90;;;;;;5004498;28;20580;-78
2023/06/07 02:54:59;;;;;;;1999.90;999.90;;;11.10;99.90;;;;;;5009373;28;20143;-78
2023/06/07 02:57:26;;;;;;;1999.90;999.90;;;11.10;99.90;;;;;;5023683;28;20134;-80
2023/06/07 02:59:54;;;;;;;1999.90;999.90;;;11.20;99.90;;;;;;5007539;28;20060;-78
2023/06/07 03:02:20;;;;;;;1999.90;999.90;;;11.30;99.90;;;;;;5024544;28;20056;-78
2023/06/07 03:04:46;;;;;;;1869.07;574.10;;;11.30;99.90;;;;;;5027854;28;20472;-78
2023/06/07 03:07:14;;;;;;;1999.90;999.90;;;11.30;99.90;;;;;;5006587;28;20056;-79
2023/06/07 03:09:40;;;;;;;1823.38;570.55;;;11.40;99.90;;;;;;5023764;28;20489;-78
2023/06/07 03:12:06;;;;;;;1999.90;999.90;;;11.40;99.90;;;;;;5026464;28;20037;-77
2023/06/07 03:14:33;;;;;;;1999.90;999.90;;;11.50;99.90;;;;;;5038989;28;20045;-77
2023/06/07 03:16:59;;;;;;;1999.90;999.90;;;11.50;99.90;;;;;;5029603;28;20107;-83
2023/06/07 03:19:24;;;;;;;1999.90;999.90;;;11.50;99.90;;;;;;5007824;28;20042;-80
2023/06/07 03:21:52;;;;;;;1999.90;999.90;;;11.60;99.90;;;;;;5010339;28;20050;-78
2023/06/07 03:24:18;;;;;;;1999.90;401.10;;;11.70;99.90;;;;;;5027137;28;20040;-79
2023/06/07 03:26:43;;;;;;;1777.82;576.05;;;11.60;99.90;;;;;;5011296;28;20049;-78
2023/06/07 03:29:09;;;;;;;1999.90;999.90;;;11.60;99.90;;;;;;5009346;28;20056;-82
2023/06/07 03:31:36;;;;;;;1999.90;999.90;;;11.60;99.90;;;;;;5028462;28;20382;-77
2023/06/07 03:34:02;;;;;;;1999.90;999.90;;;11.70;99.90;;;;;;5029831;28;20112;-78
2023/06/07 03:36:28;;;;;;;1999.90;801.17;;;11.70;99.90;;;;;;5010858;28;20458;-79
2023/06/07 03:38:55;;;;;;;1999.90;217.93;;;11.80;99.90;;;;;;5011605;28;20049;-78
2023/06/07 03:41:21;;;;;;;1999.90;999.90;;;11.80;99.90;;;;;;5026348;28;20061;-80
2023/06/07 03:43:47;;;;;;;1999.90;999.90;;;11.80;99.90;;;;;;5028799;28;20037;-78
2023/06/07 03:46:13;;;;;;;1743.85;773.30;;;11.90;99.90;;;;;;5008779;28;20061;-78
2023/06/07 03:48:38;;;;;;;1999.90;999.90;;;11.90;99.90;;;;;;5010841;28;20045;-78
2023/06/07 03:51:07;;;;;;;940.15;82.72;;;12.00;99.90;;;;;;5027082;28;20474;-78
2023/06/07 03:53:32;;;;;;;1774.13;575.70;;;12.00;99.90;;;;;;5010184;28;20045;-78
2023/06/07 03:55:58;;;;;;;1999.90;999.90;;;12.00;99.90;;;;;;5009746;28;20083;-78
2023/06/07 03:58:25;;;;;;;1999.90;999.90;;;12.00;99.90;;;;;;5009009;28;20120;-79
2023/06/07 04:00:51;;;;;;;1359.25;124.88;;;12.10;99.90;;;;;;4993541;28;20041;-78
2023/06/07 04:03:24;;;;;;;1999.90;999.90;;;12.10;99.90;;;;;;5028558;28;20481;-78
2023/06/07 04:05:53;;;;;;;1924.53;175.38;;;12.10;99.90;;;;;;5010255;28;20048;-80
2023/06/07 04:08:19;;;;;;;1999.90;803.22;;;12.10;99.90;;;;;;5028126;28;20485;-78
2023/06/07 04:10:45;;;;;;;1999.90;999.90;;;12.20;99.90;;;;;;5025914;28;20061;-80
2023/06/07 04:13:11;;;;;;;1879.05;785.35;;;12.20;99.90;;;;;;5027461;28;20041;-81
2023/06/07 04:15:37;;;;;;;1999.90;999.90;;;12.30;99.90;;;;;;4996909;28;20041;-79
2023/06/07 04:18:02;;;;;;;1999.90;999.90;;;12.30;99.90;;;;;;5024105;28;20033;-79
2023/06/07 04:20:28;;;;;;;1999.90;999.90;;;12.30;99.90;;;;;;5024420;28;20067;-78
2023/06/07 04:22:54;;;;;;;1999.90;999.90;;;12.30;99.90;;;;;;5004826;28;20060;-78
2023/06/07 04:25:24;;;;;;;1999.90;999.90;;;12.40;99.90;;;;;;5026701;28;20706;-81
2023/06/07 04:27:51;;;;;;;1999.90;999.90;;;12.40;99.90;;;;;;5027695;28;20099;-78
2023/06/07 04:30:18;;;;;;;1999.90;999.90;;;12.50;99.90;;;;;;5026555;28;20356;-79
2023/06/07 04:32:44;;;;;;;1999.90;999.90;;;12.50;99.90;;;;;;5025715;28;20053;-83
2023/06/07 04:35:14;;;;;;;1999.90;999.90;;;12.60;99.90;;;;;;5041852;28;20289;-80
2023/06/07 04:37:45;;;;;;;1999.90;999.90;;;12.60;99.90;;;;;;5027732;28;20124;-79
2023/06/07 04:40:13;;;;;;;1999.90;999.90;;;12.60;99.90;;;;;;5027017;28;20061;-82
2023/06/07 04:42:40;;;;;;;1820.93;778.05;;;12.70;99.90;;;;;;5026211;28;20057;-78
2023/06/07 04:45:07;;;;;;;1530.20;342.08;;;12.80;99.90;;;;;;4995377;28;20045;-78
2023/06/07 04:47:33;;;;;;;1999.90;999.90;;;12.80;99.90;;;;;;5022638;28;20037;-79
2023/06/07 04:50:00;;;;;;;1999.90;999.90;;;12.90;99.90;;;;;;5027359;28;20509;-82
2023/06/07 04:52:26;;;;;;;1799.22;784.38;;;12.90;99.90;;;;;;5019365;28;20473;-79
2023/06/07 04:54:53;;;;;;;1881.57;787.33;;;13.00;99.90;;;;;;5027999;28;20159;-82
2023/06/07 04:57:22;;;;;;;1999.90;999.90;;;13.00;99.90;;;;;;5006911;28;20087;-83
2023/06/07 04:59:48;;;;;;;1435.55;539.90;;;13.10;99.90;;;;;;5008882;28;20075;-79
2023/06/07 05:02:15;;;;;;;1762.72;775.17;;;13.10;99.90;;;;;;5024209;28;20053;-79
2023/06/07 05:04:41;;;;;;;1491.10;543.70;;;13.20;99.90;;;;;;5024264;28;20124;-78
2023/06/07 05:07:07;;;;;;;1484.47;541.08;;;13.20;99.90;;;;;;4992816;28;20128;-78
2023/06/07 05:09:34;;;;;;;1999.90;999.90;;;13.20;99.90;;;;;;5009987;28;20049;-78
2023/06/07 05:11:59;;;;;;;1824.35;780.60;;;13.30;99.90;;;;;;5008065;28;20053;-79
2023/06/07 05:14:25;;;;;;;1999.90;999.90;;;13.40;99.90;;;;;;4992658;28;20485;-81
2023/06/07 05:16:51;;;;;;;1742.97;165.85;;;13.40;99.90;;;;;;5026343;28;20492;-78
2023/06/07 05:19:17;;;;;;;1860.47;793.55;;;13.50;99.90;;;;;;4993390;28;20033;-79
2023/06/07 05:21:42;;;;;;;1906.60;177.25;;;13.50;99.90;;;;;;5009240;28;20037;-79
2023/06/07 05:24:08;;;;;;;1719.47;770.17;;;13.50;99.90;;;;;;5006399;28;20493;-81
2023/06/07 05:26:34;;;;;;;1672.80;182.90;;;13.60;99.90;;;;;;5025126;28;20091;-81
2023/06/07 05:29:00;;;;;;;1739.43;773.63;;;13.60;99.90;;;;;;5012859;28;20104;-79
2023/06/07 05:31:26;;;;;;;1445.10;562.97;;;13.60;99.90;;;;;;5012732;28;20060;-80
2023/06/07 05:33:52;;;;;;;1691.07;768.03;;;13.60;99.90;;;;;;5011838;28;20060;-78
2023/06/07 05:36:20;;;;;;;1748.43;773.25;;;13.50;99.90;;;;;;5029090;28;20145;-78
2023/06/07 05:38:45;;;;;;;1999.90;999.90;;;13.50;99.90;;;;;;5014644;28;20131;-77
2023/06/07 05:41:11;;;;;;;1999.90;999.90;;;13.60;99.90;;;;;;5013161;28;20469;-77
2023/06/07 05:43:37;;;;;;;1565.68;553.53;;;13.70;99.90;;;;;;5011957;28;20057;-77
2023/06/07 05:46:03;;;;;;;1999.90;999.90;;;13.80;99.90;;;;;;4996924;28;20041;-79
2023/06/07 05:48:28;;;;;;;1999.90;999.90;;;13.80;99.90;;;;;;5014464;28;20045;-81
2023/06/07 05:50:54;;;;;;;1999.90;999.90;;;13.90;99.90;;;;;;5024029;28;20084;-77
2023/06/07 05:53:20;;;;;;;1759.20;770.30;;;14.90;99.90;;;;;;5027564;28;20050;-78
2023/06/07 05:55:47;;;;;;;1830.10;793.10;;;14.00;99.90;;;;;;4991750;28;20080;-78
2023/06/07 05:58:14;;;;;;;1624.65;562.80;;;14.00;99.90;;;;;;5011477;28;20121;-78
2023/06/07 06:00:44;;;;;;;1999.90;999.90;;;14.20;99.90;;;;;;5007440;28;20104;-78
2023/06/07 06:03:10;;;;;;;1764.13;779.83;;;14.30;99.90;;;;;;5002372;28;20061;-77
2023/06/07 06:05:36;;;;;;;1812.03;781.35;;;14.30;99.90;;;;;;5007939;28;20052;-79
2023/06/07 06:08:02;;;;;;;1999.90;999.90;;;14.50;99.90;;;;;;5028069;28;20045;-77
2023/06/07 06:10:28;;;;;;;1999.90;999.90;;;14.60;99.90;;;;;;5012664;28;20099;-78
2023/06/07 06:12:55;;;;;;;1999.90;999.90;;;14.80;99.90;;;;;;5009809;28;20049;-77
2023/06/07 06:15:22;;;;;;;1999.90;999.90;;;14.90;99.90;;;;;;5027473;28;20051;-78
2023/06/07 06:17:51;;;;;;;1999.90;999.90;;;15.00;99.90;;;;;;5008738;28;20072;-80
2023/06/07 06:20:17;;;;;;;1999.90;999.90;;;15.00;99.90;;;;;;5030842;28;20490;-81
2023/06/07 06:22:43;;;;;;;1999.90;999.90;;;15.10;99.90;;;;;;5031590;28;20160;-78
2023/06/07 06:25:08;;;;;;;1999.90;999.90;;;15.10;99.90;;;;;;5014051;28;20056;-78
2023/06/07 06:27:34;;;;;;;1999.90;999.90;;;15.10;99.90;;;;;;5012317;28;20045;-84
2023/06/07 06:30:00;;;;;;;1999.90;999.90;;;15.10;99.90;;;;;;5033634;28;20045;-78
2023/06/07 06:32:25;;;;;;;1999.90;999.90;;;15.10;99.90;;;;;;5031643;28;20053;-78
2023/06/07 06:34:51;;;;;;;1999.90;999.90;;;15.10;99.90;;;;;;5014169;28;20104;-79
2023/06/07 06:37:17;;;;;;;1999.90;999.90;;;15.10;99.90;;;;;;5010671;28;20120;-79
2023/06/07 06:39:42;;;;;;;1999.90;999.90;;;15.10;99.90;;;;;;5012383;28;20052;-84
2023/06/07 06:42:08;;;;;;;1999.90;999.90;;;15.10;99.90;;;;;;5027850;28;20080;-77
2023/06/07 06:44:34;;;;;;;1999.90;999.90;;;15.20;99.90;;;;;;5017417;28;20502;-77
2023/06/07 06:47:00;;;;;;;1999.90;999.90;;;15.30;99.90;;;;;;5027832;28;20045;-78
2023/06/07 06:49:26;;;;;;;1999.90;999.90;;;15.30;99.90;;;;;;5029462;28;20052;-83
2023/06/07 06:51:51;;;;;;;1999.90;999.90;;;15.30;99.90;;;;;;5014443;28;20045;-77
2023/06/07 06:54:17;;;;;;;1999.90;999.90;;;15.30;99.90;;;;;;5014944;28;20041;-77
2023/06/07 06:56:43;;;;;;;1999.90;999.90;;;15.30;99.90;;;;;;5031236;28;20045;-77
2023/06/07 06:59:08;;;;;;;1999.90;999.90;;;15.40;99.90;;;;;;5017010;28;20042;-77
2023/06/07 07:01:47;;;;;;;1999.90;999.90;;;15.40;99.90;;;;;;5030818;28;20053;-77
2023/06/07 07:04:14;;;;;;;1999.90;999.90;;;15.50;99.90;;;;;;5032207;28;20049;-77
2023/06/07 07:06:41;;;;;;;1999.90;999.90;;;15.60;99.90;;;;;;5029848;28;20498;-82
2023/06/07 07:09:07;;;;;;;1999.90;999.90;;;15.80;99.90;;;;;;5014751;28;20045;-77
2023/06/07 07:11:33;;;;;;;1999.90;999.90;;;15.90;99.90;;;;;;5032043;28;20096;-79
2023/06/07 07:13:59;;;;;;;1999.90;999.90;;;16.10;99.90;;;;;;5015098;28;20786;-78
2023/06/07 07:16:25;;;;;;;1999.90;999.90;;;16.20;99.90;;;;;;5014685;28;20088;-79
2023/06/07 07:18:50;;;;;;;1999.90;999.90;;;16.30;99.90;;;;;;5011787;28;20379;-79
2023/06/07 07:21:16;;;;;;;1999.90;999.90;;;16.50;99.90;;;;;;5019381;28;20392;-79
2023/06/07 07:23:42;;;;;;;1999.90;999.90;;;16.70;99.90;;;;;;4999886;28;20064;-83
2023/06/07 07:26:07;;;;;;;1999.90;999.90;;;16.80;99.90;;;;;;5031955;28;20045;-78
2023/06/07 07:28:33;;;;;;;1999.90;999.90;;;16.80;99.90;;;;;;5032661;28;20120;-79
2023/06/07 07:30:59;;;;;;;1999.90;999.90;;;16.80;99.90;;;;;;4998414;28;20139;-77
2023/06/07 07:33:24;;;;;;;1999.90;999.90;;;16.90;99.90;;;;;;5032651;28;20061;-79
2023/06/07 07:35:51;;;;;;;1999.90;999.90;;;17.10;99.90;;;;;;4998976;28;20478;-77
2023/06/07 07:38:16;;;;;;;1999.90;999.90;;;17.30;99.90;;;;;;4996408;28;20124;-80
2023/06/07 07:40:47;;;;;;;1999.90;999.90;;;17.30;99.90;;;;;;4998297;28;20156;-85
2023/06/07 07:43:15;;;;;;;1999.90;917.85;;;17.40;99.90;;;;;;5047292;28;20497;-79
2023/06/07 07:45:41;;;;;;;1999.90;999.90;;;17.50;99.90;;;;;;4997143;28;20044;-85
2023/06/07 07:48:06;;;;;;;1999.90;999.90;;;17.60;99.90;;;;;;5014905;28;20099;-78
2023/06/07 07:50:37;;;;;;;1999.90;999.90;;;17.70;99.90;;;;;;5013842;28;20482;-78
2023/06/07 07:53:03;;;;;;;1999.90;999.90;;;17.80;99.90;;;;;;5014300;28;20250;-78
2023/06/07 07:55:30;;;;;;;1999.90;999.90;;;17.90;99.90;;;;;;4996863;28;20068;-79
2023/06/07 07:57:56;;;;;;;1999.90;912.08;;;18.10;99.90;;;;;;4996800;28;20064;-78
2023/06/07 08:00:23;;;;;;;1999.90;999.90;;;18.10;99.90;;;;;;5014066;28;20049;-80
2023/06/07 08:02:49;;;;;;;1999.90;902.35;;;18.30;99.90;;;;;;5011369;28;20057;-79
2023/06/07 08:05:15;;;;;;;1999.90;917.38;;;18.40;99.90;;;;;;5029959;28;20041;-79
2023/06/07 08:07:40;;;;;;;1999.90;999.90;;;18.60;99.90;;;;;;5012919;28;20495;-78
2023/06/07 08:10:08;;;;;;;1999.90;999.90;;;18.70;99.90;;;;;;5008738;28;20128;-80
2023/06/07 08:12:34;;;;;;;1999.90;999.90;;;18.80;99.90;;;;;;5011283;28;20049;-80
2023/06/07 08:15:00;;;;;;;1999.90;999.90;;;18.80;99.90;;;;;;5020574;28;20098;-81
2023/06/07 08:17:25;;;;;;;1999.90;999.90;;;18.90;99.90;;;;;;5031899;28;20045;-80
2023/06/07 08:19:51;;;;;;;1999.90;999.90;;;19.10;99.90;;;;;;4998652;28;20462;-79
2023/06/07 08:22:17;;;;;;;1999.90;999.90;;;19.20;99.90;;;;;;5031622;28;20041;-81
2023/06/07 08:24:42;;;;;;;1999.90;999.90;;;19.30;99.90;;;;;;5029600;28;20107;-79
2023/06/07 08:27:08;;;;;;;1999.90;999.90;;;19.50;99.90;;;;;;5029799;28;20045;-79
2023/06/07 08:29:34;;;;;;;1999.90;999.90;;;19.60;99.90;;;;;;5032913;28;20486;-80
2023/06/07 08:31:59;;;;;;;1999.90;999.90;;;19.60;99.90;;;;;;5012942;28;20677;-79
2023/06/07 08:34:28;;;;;;;1999.90;999.90;;;19.80;99.90;;;;;;5028616;28;20041;-79
2023/06/07 08:36:54;;;;;;;1999.90;999.90;;;19.80;99.90;;;;;;5012333;28;20391;-81
2023/06/07 08:39:20;;;;;;;1999.90;999.90;;;20.00;99.90;;;;;;4993097;28;20049;-80
2023/06/07 08:41:46;;;;;;;1999.90;999.90;;;20.10;99.90;;;;;;5012489;28;20128;-86
2023/06/07 08:44:12;;;;;;;1999.90;999.90;;;20.20;99.90;;;;;;5014335;28;20153;-80
2023/06/07 08:46:39;;;;;;;1999.90;999.90;;;20.40;99.90;;;;;;5015185;28;20049;-79
2023/06/07 08:49:05;;;;;;;1999.90;999.90;;;20.50;99.90;;;;;;5011383;28;20064;-80
2023/06/07 08:51:36;;;;;;;1999.90;999.90;;;20.60;99.90;;;;;;5014287;28;20410;-79
2023/06/07 08:54:03;;;;;;;1999.90;999.90;;;20.70;99.90;;;;;;5033281;28;20061;-78
2023/06/07 08:56:31;;;;;;;;;;;20.60;99.90;;;;;;5029443;28;20056;-78
2023/06/07 08:58:57;;;;;;;1999.90;999.90;;;20.70;99.90;;;;;;5031175;28;19999;-79
2023/06/07 09:01:23;;;;;;;1999.90;999.90;;;20.90;99.90;;;;;;5028588;28;20072;-79
2023/06/07 09:03:53;;;;;;;1999.90;999.90;;;20.90;99.90;;;;;;4999980;28;20084;-79
2023/06/07 09:06:20;;;;;;;1999.90;999.90;;;21.00;99.90;;;;;;5031532;28;20120;-79
2023/06/07 09:08:46;;;;;;;1999.90;999.90;;;21.30;99.90;;;;;;4995315;28;20059;-77
2023/06/07 09:11:11;;;;;;;1999.90;999.90;;;21.50;99.90;;;;;;5009040;28;20080;-77
2023/06/07 09:13:37;;;;;;;1999.90;999.90;;;21.70;99.90;;;;;;5031380;28;20080;-77
2023/06/07 09:16:04;;;;;;;1999.90;999.90;;;21.90;99.90;;;;;;5000495;28;20061;-78
2023/06/07 09:18:53;;;;;;;1999.90;999.90;;;21.80;99.90;;;;;;5031877;28;20089;-79
2023/06/07 09:21:26;;;;;;;1999.90;999.90;;;21.90;99.90;;;;;;5012225;28;20049;-78
2023/06/07 09:23:52;;;;;;;1999.90;999.90;;;22.10;99.90;;;;;;5020398;28;20405;-82
2023/06/07 09:26:21;;;;;;;1999.90;999.90;;;22.20;99.90;;;;;;5032937;28;21226;-79
2023/06/07 09:28:48;;;;;;;1999.90;999.90;;;22.40;99.90;;;;;;5026684;28;20041;-78
2023/06/07 09:31:28;;;;;;;1999.90;999.90;;;22.50;99.90;;;;;;5048501;28;20045;-78
2023/06/07 09:33:55;;;;;;;1999.90;999.90;;;22.70;99.90;;;;;;5021614;28;20084;-79
2023/06/07 09:36:21;;;;;;;1999.90;999.90;;;22.80;99.90;;;;;;5030968;28;20049;-79
2023/06/07 09:38:47;;;;;;;1999.90;999.90;;;22.90;99.90;;;;;;5031263;28;20042;-77
2023/06/07 09:41:13;;;;;;;1999.90;878.28;;;23.20;99.90;;;;;;5031149;28;20099;-78
2023/06/07 09:43:54;;;;;;;1999.90;999.90;;;23.50;99.90;;;;;;5015167;28;20125;-79
2023/06/07 09:46:20;;;;;;;1999.90;999.90;;;23.50;99.90;;;;;;4995116;28;20053;-83
2023/06/07 09:48:53;;;;;;;1999.90;999.90;;;23.50;99.90;;;;;;5030363;28;20119;-78
2023/06/07 09:51:20;;;;;;;1999.90;999.90;;;23.70;99.90;;;;;;5030834;28;20057;-78
2023/06/07 09:54:05;;;;;;;1999.90;999.90;;;23.90;99.90;;;;;;4995098;28;20058;-79
2023/06/07 09:56:31;;;;;;;1999.90;999.90;;;24.00;99.90;;;;;;5015169;28;20498;-81
2023/06/07 09:59:14;;;;;;;1999.90;934.67;;;24.20;99.90;;;;;;5015126;28;20043;-79
2023/06/07 10:01:47;;;;;;;1711.40;615.00;;;24.40;99.90;;;;;;5050860;28;20057;-79
2023/06/07 10:04:13;;;;;;;1999.90;999.90;;;24.70;99.90;;;;;;5017714;28;20563;-79
2023/06/07 10:06:43;;;;;;;1530.20;615.63;;;24.90;99.90;;;;;;5018122;28;20049;-78
2023/06/07 10:09:10;;;;;;;1999.90;999.90;;;25.00;99.90;;;;;;5015549;28;20104;-79
2023/06/07 10:11:38;;;;;;;1999.90;999.90;;;25.30;99.90;;;;;;5015569;28;20034;-80
2023/06/07 10:14:06;;;;;;;;;;;25.60;99.90;;;;;;5034950;28;20049;-79
2023/06/07 10:16:37;;;;;;;1999.90;999.90;;;25.80;99.90;;;;;;5014652;28;20000;-80
2023/06/07 10:19:15;;;;;;;1999.90;999.90;;;26.20;99.90;;;;;;5013981;28;20486;-81
2023/06/07 10:21:45;;;;;;;1999.90;999.90;;;26.70;99.90;;;;;;5016696;28;20045;-80
2023/06/07 10:24:16;;;;;;;1999.90;999.90;;;26.80;99.90;;;;;;5033161;28;20060;-81
2023/06/07 10:26:57;;;;;;;1999.90;999.90;;;26.90;99.90;;;;;;5003695;28;20416;-80
2023/06/07 10:29:48;;;;;;;1999.90;999.90;;;27.10;99.90;;;;;;5023494;28;20076;-83
2023/06/07 10:32:16;;;;;;;1999.90;999.90;;;27.50;99.90;;;;;;5015073;28;20498;-80
2023/06/07 10:34:46;;;;;;;1999.90;999.90;;;27.60;99.90;;;;;;5015054;28;20084;-77
2023/06/07 10:37:14;;;;;;;1999.90;999.90;;;27.90;99.90;;;;;;5024029;28;20195;-77
2023/06/07 10:39:40;;;;;;;1999.90;999.90;;;28.30;99.90;;;;;;5032332;28;20510;-78
2023/06/07 10:42:06;;;;;;;1999.90;999.90;;;28.60;99.90;;;;;;5015828;28;20095;-78
2023/06/07 10:44:33;;;;;;;1999.90;999.90;;;29.10;99.90;;;;;;5034375;28;20037;-78
2023/06/07 10:47:21;;;;;;;1999.90;999.90;;;29.70;99.90;;;;;;5017027;28;20126;-78
2023/06/07 10:49:47;;;;;;;1999.90;999.90;;;30.10;99.90;;;;;;5030746;28;20553;-78
2023/06/07 10:52:15;;;;;;;1999.90;999.90;;;30.30;99.90;;;;;;5021056;28;20454;-78
2023/06/07 10:54:41;;;;;;;1999.90;999.90;;;30.60;99.90;;;;;;5014571;28;20042;-80
2023/06/07 10:57:08;;;;;;;1999.90;999.90;;;30.90;99.90;;;;;;4998900;28;20092;-78
2023/06/07 10:59:37;;;;;;;1999.90;999.90;;;31.50;99.90;;;;;;5032571;28;20045;-79
2023/06/07 11:02:20;;;;;;;1999.90;999.90;;;32.10;99.90;;;;;;5014375;28;20060;-77
2023/06/07 11:04:52;;;;;;;1999.90;999.90;;;32.20;99.90;;;;;;5022715;28;20091;-77
2023/06/07 11:07:30;;;;;;;1999.90;999.90;;;32.70;99.90;;;;;;5030808;28;20128;-78
2023/06/07 11:10:07;;;;;;;1999.90;999.90;;;33.10;99.90;;;;;;5032471;28;20049;-77
2023/06/07 11:12:40;;;;;;;1999.90;999.90;;;33.40;99.90;;;;;;5020668;28;20041;-77
2023/06/07 11:15:20;;;;;;;1999.90;999.90;;;33.50;99.90;;;;;;5014639;28;20409;-78
2023/06/07 11:17:56;;;;;;;1999.90;999.90;;;33.80;99.90;;;;;;5030598;28;20049;-78
2023/06/07 11:20:48;;;;;;;1999.90;999.90;;;33.90;99.90;;;;;;5030649;28;20068;-81
2023/06/07 11:23:22;;;;;;;1999.90;999.90;;;34.10;99.90;;;;;;5021246;28;20505;-77
2023/06/07 11:25:49;;;;;;;1999.90;999.90;;;34.40;99.90;;;;;;5014205;28;20049;-77
2023/06/07 11:28:18;;;;;;;1999.90;999.90;;;34.60;99.90;;;;;;5015818;28;20049;-77
2023/06/07 11:30:44;;;;;;;1999.90;999.90;;;34.90;99.90;;;;;;5014288;28;20394;-77
2023/06/07 11:33:16;;;;;;;1999.90;999.90;;;34.90;99.90;;;;;;5016453;28;20393;-78
2023/06/07 11:35:42;;;;;;;1999.90;999.90;;;35.20;99.90;;;;;;5032525;28;20080;-77
2023/06/07 11:38:08;;;;;;;1999.90;999.90;;;35.50;99.90;;;;;;5033425;28;20049;-79
2023/06/07 11:40:35;;;;;;;1999.90;999.90;;;35.90;99.90;;;;;;5031094;28;20108;-77
2023/06/07 11:43:02;;;;;;;1999.90;999.90;;;35.90;99.90;;;;;;5014739;28;20060;-78
2023/06/07 11:45:30;;;;;;;1999.90;999.90;;;36.00;99.90;;;;;;5030032;28;20092;-78
2023/06/07 11:48:02;;;;;;;1999.90;999.90;;;35.90;99.90;;;;;;5043422;28;20053;-78
2023/06/07 11:50:28;;;;;;;1999.90;999.90;;;36.20;99.90;;;;;;5015493;28;20489;-77
2023/06/07 11:52:55;;;;;;;1999.90;999.90;;;36.40;99.90;;;;;;5023059;28;20486;-78
2023/06/07 11:55:21;;;;;;;1999.90;999.90;;;36.40;99.90;;;;;;5012760;28;20798;-79
2023/06/07 11:57:51;;;;;;;1999.90;999.90;;;36.20;99.90;;;;;;5032975;28;20049;-77
2023/06/07 12:00:23;;;;;;;1999.90;999.90;;;36.40;99.90;;;;;;5020220;28;20053;-77
2023/06/07 12:02:50;;;;;;;1999.90;999.90;;;36.60;99.90;;;;;;5009916;28;20514;-79